Time;durP1;ratioP1;P1;durP2;ratioP2;P2;SDS_P1;SDS_P2;PMS_P1;PMS_P2;Temp;Humidity;BMP_temperature;BMP_pressure;BME280_temperature;BME280_humidity;BME280_pressure;Samples;Min_cycle;Max_cycle;Signal;HPM_P1;HPM_P2
2024/03/18 00:02:26;;;;;;;27.20;18.55;;;;;;;11.37;87.33;100174.41;5088130;28;20023;-80
2024/03/18 00:04:52;;;;;;;27.63;18.55;;;;;;;11.33;86.60;100158.00;5087814;28;20131;-80
2024/03/18 00:07:21;;;;;;;28.00;18.55;;;;;;;11.42;87.18;100169.19;5088260;28;20867;-80
2024/03/18 00:09:46;;;;;;;25.90;16.00;;;;;;;11.26;87.58;100152.72;5088418;28;20024;-79
2024/03/18 00:12:12;;;;;;;24.52;16.52;;;;;;;11.24;87.53;100141.47;5087871;28;20145;-80
2024/03/18 00:14:38;;;;;;;25.95;16.08;;;;;;;11.12;87.53;100121.88;5088244;28;20031;-81
2024/03/18 00:17:05;;;;;;;23.42;16.58;;;;;;;11.21;88.20;100131.22;5069639;28;20111;-79
2024/03/18 00:19:32;;;;;;;23.67;15.23;;;;;;;11.15;88.94;100121.41;5087776;28;20042;-80
2024/03/18 00:21:57;;;;;;;24.02;15.20;;;;;;;10.94;90.77;100108.50;5069324;28;20024;-79
2024/03/18 00:24:23;;;;;;;25.20;15.80;;;;;;;11.34;89.35;100130.28;5088254;28;20031;-80
2024/03/18 00:26:48;;;;;;;23.98;14.82;;;;;;;11.37;88.66;100123.66;5087743;28;20032;-80
2024/03/18 00:29:14;;;;;;;23.15;14.50;;;;;;;11.34;89.52;100121.41;5087533;28;20044;-80
2024/03/18 00:31:39;;;;;;;20.75;15.05;;;;;;;11.48;89.14;100119.44;5087618;28;20024;-79
2024/03/18 00:34:04;;;;;;;19.92;14.13;;;;;;;11.48;89.48;100125.56;5069336;28;20126;-81
2024/03/18 00:36:30;;;;;;;20.88;13.52;;;;;;;11.37;89.87;100102.31;5087312;28;20099;-80
2024/03/18 00:38:56;;;;;;;21.42;14.50;;;;;;;11.40;91.11;100113.38;5087081;28;20405;-80
2024/03/18 00:44:05;;;;;;;18.42;12.98;;;;;;;11.49;91.42;100121.06;5087358;28;20101;-80
2024/03/18 00:46:31;;;;;;;19.50;12.82;;;;;;;11.38;90.75;100096.75;5087310;28;20467;-80
2024/03/18 00:48:56;;;;;;;18.17;11.60;;;;;;;11.48;91.42;100111.41;5069151;28;20109;-80
2024/03/18 00:51:22;;;;;;;16.85;10.48;;;;;;;11.23;92.39;100097.09;5086898;28;20020;-80
2024/03/18 00:53:47;;;;;;;17.42;10.68;;;;;;;11.21;91.73;100077.00;5087466;28;20892;-80
2024/03/18 00:56:13;;;;;;;15.05;9.35;;;;;;;11.43;91.39;100123.59;5087407;28;20036;-80
2024/03/18 00:58:39;;;;;;;16.17;9.98;;;;;;;11.11;91.89;100085.53;5087191;28;20028;-80
2024/03/18 01:01:06;;;;;;;15.82;10.70;;;;;;;11.29;91.42;100105.28;5086984;28;20030;-80
2024/03/18 01:03:33;;;;;;;15.35;9.55;;;;;;;11.30;92.04;100118.41;5086651;28;20749;-80
2024/03/18 01:05:59;;;;;;;14.65;9.98;;;;;;;11.24;91.67;100103.28;5086951;28;20115;-79
2024/03/18 01:08:24;;;;;;;15.52;9.93;;;;;;;11.40;89.35;100112.53;5068917;28;20173;-79
2024/03/18 01:10:50;;;;;;;14.45;9.55;;;;;;;11.30;90.39;100112.22;5068502;28;20036;-80
2024/03/18 01:13:16;;;;;;;13.85;9.35;;;;;;;11.01;91.64;100109.25;5068643;28;20088;-79
2024/03/18 01:15:42;;;;;;;12.35;8.02;;;;;;;10.85;92.95;100106.13;5068599;28;20489;-80
2024/03/18 01:18:07;;;;;;;14.20;9.50;;;;;;;10.97;92.10;100110.72;5086514;28;20420;-80
2024/03/18 01:20:33;;;;;;;15.18;9.75;;;;;;;10.75;91.73;100079.13;5086887;28;20035;-80
2024/03/18 01:23:07;;;;;;;14.30;9.38;;;;;;;10.89;92.04;100117.19;5086967;28;20039;-80
2024/03/18 01:25:34;;;;;;;14.15;8.93;;;;;;;10.94;91.10;100109.31;5086589;28;20618;-80
2024/03/18 01:28:00;;;;;;;13.98;9.43;;;;;;;10.85;91.42;100116.78;5086388;28;20051;-79
2024/03/18 01:30:25;;;;;;;14.35;9.70;;;;;;;10.81;91.81;100109.47;5086794;28;20392;-79
2024/03/18 01:32:52;;;;;;;15.13;10.55;;;;;;;10.71;92.19;100104.59;5086152;28;20452;-80
2024/03/18 01:35:19;;;;;;;14.98;10.18;;;;;;;10.75;92.22;100100.47;5086874;28;20020;-80
2024/03/18 01:37:45;;;;;;;13.77;9.20;;;;;;;10.54;91.84;100076.84;5086672;28;20028;-78
2024/03/18 01:40:11;;;;;;;14.05;10.15;;;;;;;10.61;91.81;100109.63;5086457;28;20024;-79
2024/03/18 01:42:37;;;;;;;13.23;9.38;;;;;;;10.45;91.82;100079.78;5086097;28;20535;-79
2024/03/18 01:45:03;;;;;;;14.55;10.50;;;;;;;10.60;92.49;100113.31;5087028;28;20032;-80
2024/03/18 01:47:29;;;;;;;14.75;10.70;;;;;;;10.43;92.76;100102.38;5086488;28;20025;-79
2024/03/18 01:49:55;;;;;;;14.20;10.52;;;;;;;10.31;93.40;100088.09;5086637;28;20035;-79
2024/03/18 01:52:22;;;;;;;16.08;9.98;;;;;;;10.31;94.78;100109.44;5089900;28;20105;-79
2024/03/18 01:54:48;;;;;;;16.08;9.98;;;;;;;10.14;95.94;100093.13;5090741;28;20050;-80
2024/03/18 01:57:14;;;;;;;16.02;10.82;;;;;;;10.01;96.72;100073.53;5090064;28;20023;-79
2024/03/18 01:59:39;;;;;;;14.75;10.23;;;;;;;10.20;94.60;100086.94;5080180;28;20020;-80
2024/03/18 02:02:06;;;;;;;14.60;10.07;;;;;;;10.20;95.41;100097.59;5090498;28;20050;-80
2024/03/18 02:04:31;;;;;;;17.02;10.50;;;;;;;10.15;95.54;100116.06;5090503;28;20056;-80
2024/03/18 02:06:59;;;;;;;16.73;10.63;;;;;;;10.19;96.12;100114.59;5090517;28;20066;-79
2024/03/18 02:09:25;;;;;;;16.58;10.98;;;;;;;10.18;94.95;100103.13;5071961;28;20020;-79
2024/03/18 02:11:54;;;;;;;16.63;10.63;;;;;;;9.97;94.85;100068.81;5072012;28;20105;-79
2024/03/18 02:14:20;;;;;;;16.48;10.65;;;;;;;10.01;94.87;100078.00;5071994;28;20491;-80
2024/03/18 02:16:45;;;;;;;15.55;10.82;;;;;;;9.87;95.51;100085.28;5090147;28;20568;-79
2024/03/18 02:19:11;;;;;;;17.23;11.50;;;;;;;10.03;95.39;100108.75;5090100;28;20102;-80
2024/03/18 02:21:37;;;;;;;16.75;11.27;;;;;;;9.75;95.86;100063.03;5089919;28;20044;-79
2024/03/18 02:24:06;;;;;;;16.17;11.02;;;;;;;9.93;95.26;100092.44;5090433;28;20404;-80
2024/03/18 02:26:34;;;;;;;18.80;11.40;;;;;;;9.63;96.32;100071.69;5089944;28;20024;-79
2024/03/18 02:29:00;;;;;;;14.80;10.32;;;;;;;9.83;96.22;100089.41;5089607;28;20044;-80
2024/03/18 02:31:25;;;;;;;14.63;10.68;;;;;;;9.63;96.82;100087.66;5089654;28;20035;-79
2024/03/18 02:33:51;;;;;;;17.08;11.32;;;;;;;9.86;96.76;100115.59;5089677;28;20036;-79
2024/03/18 02:36:18;;;;;;;16.90;11.57;;;;;;;9.60;98.69;100087.25;5089674;28;20083;-79
2024/03/18 02:38:44;;;;;;;16.88;11.20;;;;;;;9.58;99.19;100095.47;5089413;28;20428;-79
2024/03/18 02:41:10;;;;;;;15.18;9.98;;;;;;;9.54;100.00;100099.59;5071553;28;20035;-80
2024/03/18 02:43:35;;;;;;;17.15;11.85;;;;;;;9.51;99.68;100089.34;5089673;28;20089;-80
2024/03/18 02:46:03;;;;;;;18.23;11.63;;;;;;;9.62;97.76;100090.53;5089614;28;20028;-81
2024/03/18 02:48:29;;;;;;;;;;;;;;;9.65;99.34;100114.06;5089903;28;20106;-79
2024/03/18 02:50:54;;;;;;;16.80;10.90;;;;;;;9.68;99.35;100120.81;5089607;28;19924;-80
2024/03/18 02:53:20;;;;;;;17.30;11.63;;;;;;;9.56;98.48;100092.22;5089340;28;20174;-80
2024/03/18 02:55:45;;;;;;;17.58;11.90;;;;;;;9.66;98.55;100123.69;5089963;28;20930;-80
2024/03/18 02:58:11;;;;;;;16.52;11.48;;;;;;;9.49;98.73;100107.38;5089046;28;20028;-79
2024/03/18 03:00:36;;;;;;;16.02;11.05;;;;;;;9.46;98.85;100107.81;5071326;28;20043;-79
2024/03/18 03:03:01;;;;;;;17.05;11.02;;;;;;;9.62;98.55;100130.47;5088195;28;20028;-80
2024/03/18 03:05:27;;;;;;;18.48;11.43;;;;;;;9.56;97.60;100102.03;5089278;28;20397;-79
2024/03/18 03:07:52;;;;;;;18.38;11.65;;;;;;;9.53;96.72;100102.44;5089416;28;20028;-80
2024/03/18 03:10:18;;;;;;;16.13;11.55;;;;;;;9.51;96.98;100107.16;5070772;28;20110;-80
2024/03/18 03:12:43;;;;;;;16.20;10.80;;;;;;;9.57;96.61;100109.00;5089292;28;20400;-80
2024/03/18 03:15:09;;;;;;;16.77;11.80;;;;;;;9.51;96.50;100105.31;5089163;28;20440;-80
2024/03/18 03:17:34;;;;;;;16.00;10.82;;;;;;;9.49;95.35;100103.91;5089192;28;20036;-80
2024/03/18 03:20:00;;;;;;;15.20;10.75;;;;;;;9.54;96.99;100130.69;5089209;28;20085;-80
2024/03/18 03:22:26;;;;;;;19.48;11.40;;;;;;;9.28;97.51;100105.00;5089059;28;20032;-79
2024/03/18 03:24:51;;;;;;;18.33;11.70;;;;;;;9.17;97.05;100083.31;5088818;28;20047;-80
2024/03/18 03:27:17;;;;;;;17.30;11.48;;;;;;;9.49;95.62;100102.06;5088333;28;20078;-81
2024/03/18 03:29:43;;;;;;;16.70;10.82;;;;;;;9.56;95.23;100129.47;5089017;28;20085;-80
2024/03/18 03:32:14;;;;;;;17.25;11.15;;;;;;;9.37;95.77;100117.03;5088346;28;20061;-80
2024/03/18 03:34:39;;;;;;;18.20;11.95;;;;;;;9.23;96.37;100108.28;5088661;28;20043;-80
2024/03/18 03:37:07;;;;;;;16.55;10.93;;;;;;;9.25;96.57;100125.69;5088344;28;20031;-80
2024/03/18 03:39:33;;;;;;;15.05;10.82;;;;;;;9.06;98.03;100126.53;5088653;28;20108;-80
2024/03/18 03:41:59;;;;;;;18.25;11.75;;;;;;;8.94;98.65;100120.19;5088364;28;20028;-81
2024/03/18 03:44:24;;;;;;;19.17;11.85;;;;;;;9.22;97.38;100135.91;5088788;28;20062;-79
2024/03/18 03:46:50;;;;;;;19.17;12.25;;;;;;;8.91;98.67;100108.16;5088241;28;20016;-80
2024/03/18 03:49:17;;;;;;;15.95;10.85;;;;;;;8.88;98.26;100105.88;5088177;28;20023;-80
2024/03/18 03:51:42;;;;;;;18.17;11.98;;;;;;;8.77;98.15;100088.72;5088322;28;20032;-80
2024/03/18 03:54:07;;;;;;;17.90;11.73;;;;;;;8.69;98.32;100094.25;5088253;28;20493;-80
2024/03/18 03:56:33;;;;;;;17.92;11.25;;;;;;;8.94;97.06;100107.72;5070217;28;20543;-80
2024/03/18 03:58:59;;;;;;;17.17;11.75;;;;;;;8.82;97.37;100096.06;5088262;28;20039;-79
2024/03/18 04:01:24;;;;;;;18.75;11.98;;;;;;;9.06;95.67;100115.88;5088436;28;20500;-80
2024/03/18 04:03:50;;;;;;;17.67;11.82;;;;;;;8.89;95.71;100101.38;5069879;28;20123;-79
2024/03/18 04:06:15;;;;;;;18.95;11.20;;;;;;;8.79;96.34;100086.69;5070201;28;20085;-80
2024/03/18 04:08:41;;;;;;;17.83;11.73;;;;;;;8.81;97.60;100105.91;5069452;28;20070;-80
2024/03/18 04:11:07;;;;;;;17.33;11.32;;;;;;;8.72;97.90;100101.81;5087744;28;20706;-80
2024/03/18 04:13:32;;;;;;;18.25;11.90;;;;;;;8.57;98.54;100093.25;5069513;28;20460;-80
2024/03/18 04:15:58;;;;;;;14.70;10.55;;;;;;;8.72;97.49;100098.34;5088290;28;20519;-80
2024/03/18 04:18:23;;;;;;;15.75;11.02;;;;;;;8.44;98.84;100078.94;5069640;28;20032;-80
2024/03/18 04:20:48;;;;;;;15.50;11.10;;;;;;;8.40;98.24;100064.38;5087751;28;20040;-80
2024/03/18 04:23:14;;;;;;;15.13;10.23;;;;;;;8.67;97.49;100106.94;5087460;28;20036;-80
2024/03/18 04:25:41;;;;;;;14.63;10.15;;;;;;;8.61;95.94;100078.50;5069262;28;20458;-79
2024/03/18 04:28:10;;;;;;;16.58;10.32;;;;;;;8.88;95.43;100115.72;5087116;28;20111;-80
2024/03/18 04:30:37;;;;;;;17.08;11.60;;;;;;;8.75;94.67;100096.09;5103149;28;20081;-80
2024/03/18 04:33:04;;;;;;;18.13;10.80;;;;;;;8.57;95.65;100078.09;5069397;28;20540;-80
2024/03/18 04:35:29;;;;;;;15.52;10.88;;;;;;;8.73;93.78;100087.50;5087552;28;20626;-80
2024/03/18 04:37:55;;;;;;;16.65;11.20;;;;;;;8.81;93.65;100097.91;5087154;28;20035;-79
2024/03/18 04:40:25;;;;;;;15.48;10.75;;;;;;;8.64;93.57;100094.88;5087147;28;20604;-80
2024/03/18 04:42:51;;;;;;;17.90;12.15;;;;;;;8.36;96.13;100094.22;5087346;28;20042;-80
2024/03/18 04:45:21;;;;;;;17.25;11.30;;;;;;;8.59;95.61;100123.09;5087672;28;20039;-80
2024/03/18 04:47:51;;;;;;;20.85;10.98;;;;;;;8.67;95.72;100130.84;5086938;28;20433;-79
2024/03/18 04:50:22;;;;;;;16.35;10.55;;;;;;;8.38;96.10;100103.63;5069016;28;20032;-80
2024/03/18 04:52:48;;;;;;;17.15;10.98;;;;;;;7.84;99.27;100077.97;5068878;28;20043;-80
2024/03/18 04:55:14;;;;;;;18.52;11.27;;;;;;;8.05;100.00;100127.50;5086825;28;20032;-80
2024/03/18 04:57:40;;;;;;;17.77;11.90;;;;;;;8.02;100.00;100134.00;5068868;28;20111;-80
2024/03/18 05:00:14;;;;;;;18.30;13.60;;;;;;;8.19;99.83;100120.34;5086737;28;20126;-80
2024/03/18 05:02:44;;;;;;;19.70;15.90;;;;;;;8.19;99.86;100118.53;5068709;28;20044;-80
2024/03/18 05:05:12;;;;;;;18.85;13.40;;;;;;;8.33;98.48;100129.97;5068741;28;20024;-79
2024/03/18 05:07:37;;;;;;;17.00;11.70;;;;;;;8.17;97.92;100093.16;5086598;28;20040;-80
2024/03/18 05:10:04;;;;;;;16.92;11.48;;;;;;;8.45;97.58;100133.69;5086542;28;20032;-79
2024/03/18 05:12:30;;;;;;;19.10;11.25;;;;;;;8.35;98.05;100122.63;5086639;28;20038;-79
2024/03/18 05:14:55;;;;;;;17.02;11.43;;;;;;;8.55;97.02;100113.88;5086789;28;20032;-79
2024/03/18 05:17:22;;;;;;;17.15;11.75;;;;;;;8.53;96.19;100102.66;5087251;28;20032;-79
2024/03/18 05:19:48;;;;;;;19.07;13.17;;;;;;;8.43;95.69;100103.03;5086724;28;20032;-79
2024/03/18 05:22:14;;;;;;;18.30;11.63;;;;;;;8.61;95.42;100131.69;5086746;28;20035;-80
2024/03/18 05:24:43;;;;;;;17.80;10.45;;;;;;;8.52;95.74;100116.94;5086618;28;20036;-80
2024/03/18 05:27:13;;;;;;;16.45;10.95;;;;;;;8.37;95.47;100088.69;5086294;28;20469;-79
2024/03/18 05:29:39;;;;;;;16.45;11.15;;;;;;;8.95;95.15;100149.25;5086382;28;20079;-79
2024/03/18 05:32:12;;;;;;;20.17;13.10;;;;;;;9.07;93.60;100136.13;5068385;28;20089;-79
2024/03/18 05:34:38;;;;;;;16.73;11.80;;;;;;;9.01;94.94;100148.44;5086295;28;20044;-78
2024/03/18 05:37:04;;;;;;;18.15;11.70;;;;;;;8.60;95.78;100106.09;5087171;28;20557;-79
2024/03/18 05:39:30;;;;;;;16.58;10.93;;;;;;;8.75;95.35;100116.53;5086277;28;20028;-80
2024/03/18 05:41:57;;;;;;;17.35;11.65;;;;;;;8.96;93.51;100128.78;5086704;28;20032;-80
2024/03/18 05:44:22;;;;;;;15.60;10.50;;;;;;;9.35;91.85;100167.81;5086517;28;20036;-80
2024/03/18 05:46:48;;;;;;;16.55;10.27;;;;;;;9.40;90.92;100143.25;5086698;28;20452;-79
2024/03/18 05:49:13;;;;;;;22.60;13.13;;;;;;;9.40;91.05;100116.63;5086614;28;20401;-79
2024/03/18 05:51:39;;;;;;;17.52;11.32;;;;;;;9.73;89.75;100151.13;5080662;28;20028;-80
2024/03/18 05:54:04;;;;;;;20.27;11.68;;;;;;;9.61;89.27;100121.66;5086566;28;20036;-80
2024/03/18 05:56:30;;;;;;;16.83;11.20;;;;;;;9.75;89.89;100137.59;5086411;28;20039;-79
2024/03/18 05:58:55;;;;;;;16.65;11.98;;;;;;;10.00;88.39;100143.81;5086685;28;20122;-79
2024/03/18 06:01:21;;;;;;;15.20;10.40;;;;;;;9.89;88.69;100120.53;5102326;28;20463;-79
2024/03/18 06:03:46;;;;;;;14.35;10.52;;;;;;;10.20;85.29;100113.59;5086066;28;20477;-79
2024/03/18 06:06:12;;;;;;;19.58;11.10;;;;;;;10.33;83.38;100134.03;5086491;28;20127;-79
2024/03/18 06:08:37;;;;;;;16.38;10.77;;;;;;;10.29;85.58;100128.25;5086385;28;20118;-79
2024/03/18 06:11:04;;;;;;;12.82;9.15;;;;;;;10.40;82.02;100119.63;5086314;28;20122;-79
2024/03/18 06:13:33;;;;;;;15.43;10.07;;;;;;;10.50;83.13;100124.47;5086060;28;20024;-79
2024/03/18 06:16:00;;;;;;;14.00;10.30;;;;;;;10.69;80.12;100120.00;5085954;28;20058;-79
2024/03/18 06:18:25;;;;;;;15.48;10.20;;;;;;;10.71;78.74;100125.13;5086118;28;20115;-79
2024/03/18 06:20:52;;;;;;;13.40;9.38;;;;;;;10.60;79.87;100100.81;5067769;28;20569;-79
2024/03/18 06:23:22;;;;;;;17.13;10.60;;;;;;;10.97;79.50;100113.38;5086141;28;20036;-79
2024/03/18 06:26:00;;;;;;;15.70;10.23;;;;;;;11.09;78.88;100110.81;5086157;28;20032;-79
2024/03/18 06:28:28;;;;;;;15.10;11.02;;;;;;;11.24;79.30;100097.94;5085839;28;20075;-80
2024/03/18 06:30:55;;;;;;;13.75;9.65;;;;;;;11.58;76.80;100133.88;5067880;28;20039;-79
2024/03/18 06:33:24;;;;;;;15.93;10.73;;;;;;;11.57;78.35;100134.13;5067936;28;20028;-79
2024/03/18 06:35:53;;;;;;;17.90;11.82;;;;;;;11.49;79.22;100115.72;5085371;28;20031;-79
2024/03/18 06:38:19;;;;;;;15.27;9.38;;;;;;;11.76;75.97;100126.91;5086925;28;20116;-79
2024/03/18 06:40:45;;;;;;;14.82;9.52;;;;;;;11.38;77.59;100110.09;5088620;28;20024;-79
2024/03/18 06:43:10;;;;;;;14.77;8.70;;;;;;;11.70;77.15;100127.81;5072832;28;20115;-79
2024/03/18 06:45:36;;;;;;;14.05;9.90;;;;;;;11.83;74.10;100128.44;5089164;28;20418;-81
2024/03/18 06:48:03;;;;;;;14.27;9.50;;;;;;;11.85;74.97;100136.25;5089945;28;20032;-79
2024/03/18 06:50:29;;;;;;;12.95;8.90;;;;;;;11.76;74.93;100132.25;5089303;28;20032;-79
2024/03/18 06:52:56;;;;;;;11.90;8.75;;;;;;;11.75;75.28;100126.09;5088901;28;20036;-79
2024/03/18 06:55:21;;;;;;;13.93;8.73;;;;;;;11.83;74.89;100117.75;5089059;28;20042;-80
2024/03/18 06:57:47;;;;;;;12.82;8.82;;;;;;;11.95;75.16;100103.66;5089218;28;20028;-79
2024/03/18 07:00:13;;;;;;;11.27;7.63;;;;;;;12.11;71.19;100102.19;5088897;28;20043;-80
2024/03/18 07:02:38;;;;;;;12.43;7.97;;;;;;;12.28;72.12;100119.25;5088847;28;20081;-80
2024/03/18 07:05:04;;;;;;;13.60;8.98;;;;;;;12.30;74.56;100079.72;5088398;28;20031;-79
2024/03/18 07:07:30;;;;;;;12.10;8.25;;;;;;;12.67;70.03;100090.22;5088822;28;20101;-80
2024/03/18 07:09:55;;;;;;;11.27;7.40;;;;;;;13.07;67.62;100116.25;5088916;28;20043;-80
2024/03/18 07:12:21;;;;;;;10.40;7.35;;;;;;;13.26;66.69;100104.38;5089031;28;20027;-79
2024/03/18 07:14:47;;;;;;;11.80;7.22;;;;;;;13.48;67.75;100117.16;5088818;28;20093;-80
2024/03/18 07:17:13;;;;;;;10.18;6.70;;;;;;;13.52;64.77;100086.16;5088695;28;20103;-80
2024/03/18 07:19:39;;;;;;;10.63;7.05;;;;;;;13.75;67.07;100116.63;5088882;28;20058;-81
2024/03/18 07:22:04;;;;;;;9.77;6.68;;;;;;;13.78;66.54;100097.41;5070654;28;20553;-80
2024/03/18 07:24:30;;;;;;;8.65;5.93;;;;;;;14.13;62.44;100107.16;5088045;28;20032;-79
2024/03/18 07:26:55;;;;;;;9.43;6.70;;;;;;;14.32;61.04;100115.78;5068540;28;20090;-79
2024/03/18 07:29:21;;;;;;;9.60;6.70;;;;;;;14.59;62.71;100097.22;5081983;28;20532;-80
2024/03/18 07:31:46;;;;;;;10.93;6.32;;;;;;;14.62;61.38;100094.84;5070377;28;20038;-80
2024/03/18 07:34:15;;;;;;;8.20;5.13;;;;;;;14.23;61.17;100102.78;5088138;28;20046;-79
2024/03/18 07:36:40;;;;;;;8.32;5.88;;;;;;;14.27;64.65;100079.78;5088228;28;20034;-79
2024/03/18 07:39:06;;;;;;;7.82;5.03;;;;;;;14.63;61.92;100079.56;5088170;28;20115;-78
2024/03/18 07:41:32;;;;;;;8.65;4.85;;;;;;;14.78;57.94;100093.22;5088069;28;20527;-78
2024/03/18 07:43:59;;;;;;;7.95;4.28;;;;;;;14.98;57.87;100081.16;5088465;28;20074;-78
2024/03/18 07:46:24;;;;;;;7.40;4.38;;;;;;;15.43;55.71;100090.88;5088266;28;20092;-79
2024/03/18 07:48:50;;;;;;;8.13;4.32;;;;;;;15.17;55.68;100069.03;5088082;28;20514;-79
2024/03/18 07:51:15;;;;;;;6.13;3.25;;;;;;;15.13;53.95;100054.47;5087988;28;20586;-79
2024/03/18 07:53:41;;;;;;;5.50;3.50;;;;;;;15.48;51.76;100085.53;5087999;28;20035;-78
2024/03/18 07:56:07;;;;;;;6.97;3.47;;;;;;;15.48;54.35;100059.47;5088263;28;20031;-79
2024/03/18 07:58:33;;;;;;;6.22;3.63;;;;;;;15.31;53.59;100052.56;5088654;28;20040;-78
2024/03/18 08:00:59;;;;;;;6.63;3.67;;;;;;;15.55;52.61;100058.47;5088265;28;20032;-78
2024/03/18 08:03:24;;;;;;;6.93;3.50;;;;;;;15.66;52.94;100061.00;5087812;28;20035;-78
2024/03/18 08:05:51;;;;;;;22.92;13.68;;;;;;;15.78;52.67;100063.59;5087754;28;20031;-78
2024/03/18 08:08:18;;;;;;;12.00;6.35;;;;;;;15.74;51.19;100050.91;5069837;28;20505;-78
2024/03/18 08:10:44;;;;;;;4.25;2.80;;;;;;;15.96;49.04;100077.78;5087874;28;20036;-79
2024/03/18 08:13:09;;;;;;;4.32;2.47;;;;;;;15.58;49.46;100031.91;5069848;28;20405;-79
2024/03/18 08:15:38;;;;;;;6.00;3.03;;;;;;;15.60;49.34;100067.41;5088404;28;20035;-78
2024/03/18 08:18:06;;;;;;;4.35;2.55;;;;;;;15.65;49.56;100063.94;5087663;28;20038;-79
2024/03/18 08:20:32;;;;;;;13.30;6.03;;;;;;;15.75;51.17;100036.41;5087426;28;20020;-79
2024/03/18 08:22:59;;;;;;;6.38;3.08;;;;;;;16.26;47.99;100043.06;5069563;28;20035;-78
2024/03/18 08:25:24;;;;;;;3.58;1.85;;;;;;;16.44;45.22;100063.38;5087325;28;20019;-77
2024/03/18 08:27:50;;;;;;;6.13;1.88;;;;;;;16.44;46.33;100032.97;5087938;28;20592;-78
2024/03/18 08:30:16;;;;;;;3.72;1.70;;;;;;;16.81;44.57;100057.19;5086944;28;20414;-78
2024/03/18 08:32:41;;;;;;;1.88;1.23;;;;;;;16.42;40.95;100011.69;5087245;28;20595;-78
2024/03/18 08:35:07;;;;;;;2.33;1.40;;;;;;;16.84;40.19;100048.59;5087366;28;20032;-78
2024/03/18 08:37:33;;;;;;;4.82;1.52;;;;;;;16.85;39.81;100034.03;5087674;28;20032;-78
2024/03/18 08:40:02;;;;;;;2.97;1.52;;;;;;;17.09;40.87;100049.81;5087050;28;20028;-79
2024/03/18 08:42:27;;;;;;;3.28;2.03;;;;;;;17.04;41.38;100042.50;5084176;28;20031;-79
2024/03/18 08:44:53;;;;;;;2.95;1.13;;;;;;;17.13;37.41;100034.72;5086758;28;20024;-79
2024/03/18 08:47:20;;;;;;;5.90;1.40;;;;;;;17.31;39.01;100035.34;5086765;28;20063;-79
2024/03/18 08:49:47;;;;;;;4.07;1.70;;;;;;;17.59;40.33;100024.13;5074588;28;20035;-78
2024/03/18 08:52:13;;;;;;;3.00;1.30;;;;;;;17.14;37.65;100012.13;5086840;28;20051;-79
2024/03/18 08:54:38;;;;;;;2.70;1.48;;;;;;;17.48;38.94;99998.19;5087381;28;20039;-80
2024/03/18 08:57:04;;;;;;;1.60;1.20;;;;;;;17.12;38.32;100000.78;5068629;28;20036;-79
2024/03/18 08:59:29;;;;;;;4.65;1.50;;;;;;;17.50;39.14;100006.81;5086338;28;20477;-80
2024/03/18 09:01:55;;;;;;;1.45;1.10;;;;;;;17.64;37.58;100016.00;5085902;28;20028;-79
2024/03/18 09:04:20;;;;;;;3.00;1.20;;;;;;;17.84;35.67;100017.16;5078007;28;20023;-78
2024/03/18 09:06:45;;;;;;;2.58;1.00;;;;;;;17.91;33.82;100025.00;5086140;28;20031;-80
2024/03/18 09:09:11;;;;;;;2.33;1.10;;;;;;;17.92;35.63;100030.13;5087139;28;20028;-80
2024/03/18 09:11:37;;;;;;;2.88;1.10;;;;;;;18.01;36.15;100004.22;5086795;28;20040;-78
2024/03/18 09:14:05;;;;;;;3.22;1.10;;;;;;;17.75;35.48;99995.25;5086729;28;20534;-78
2024/03/18 09:16:31;;;;;;;2.33;1.20;;;;;;;17.67;35.64;100007.41;5087359;28;20174;-78
2024/03/18 09:18:57;;;;;;;2.03;1.20;;;;;;;17.52;36.12;99960.72;5086504;28;20548;-79
2024/03/18 09:21:22;;;;;;;1.50;1.20;;;;;;;17.63;35.84;99984.75;5086676;28;20050;-79
2024/03/18 09:23:48;;;;;;;2.55;1.45;;;;;;;18.10;35.75;99985.59;5086932;28;20035;-79
2024/03/18 09:26:13;;;;;;;1.85;1.10;;;;;;;18.39;34.73;99968.84;5086647;28;20462;-79
2024/03/18 09:28:39;;;;;;;2.65;1.20;;;;;;;18.61;34.32;99982.00;5086501;28;20082;-79
2024/03/18 09:31:05;;;;;;;1.77;1.15;;;;;;;18.43;34.84;99949.13;5086765;28;20038;-79
2024/03/18 09:33:31;;;;;;;1.92;1.02;;;;;;;18.50;35.42;99975.81;5086292;28;20048;-79
2024/03/18 09:35:57;;;;;;;2.85;1.10;;;;;;;18.81;36.82;99964.97;5086487;28;20039;-80
2024/03/18 09:38:22;;;;;;;4.60;1.23;;;;;;;18.91;36.70;99945.22;5087042;28;20089;-79
2024/03/18 09:40:48;;;;;;;2.47;1.25;;;;;;;19.04;33.38;99968.91;5086850;28;20025;-78
2024/03/18 09:43:13;;;;;;;2.40;1.42;;;;;;;19.07;34.65;99965.66;5086595;28;20044;-79
2024/03/18 09:45:39;;;;;;;3.53;1.08;;;;;;;18.72;34.71;99967.41;5086287;28;20032;-79
2024/03/18 09:48:05;;;;;;;4.88;1.30;;;;;;;18.80;34.14;99968.75;5086540;28;20102;-79
2024/03/18 09:50:31;;;;;;;2.22;1.27;;;;;;;19.31;34.62;99946.88;5086605;28;20035;-79
2024/03/18 09:52:57;;;;;;;7.22;1.80;;;;;;;19.44;33.33;99967.88;5068877;28;20451;-77
2024/03/18 09:55:24;;;;;;;1.63;0.90;;;;;;;19.33;34.08;99954.69;5086628;28;20115;-77
2024/03/18 09:57:51;;;;;;;90.75;17.77;;;;;;;19.46;32.78;99959.50;5086837;28;20119;-79
2024/03/18 10:00:19;;;;;;;2.38;1.30;;;;;;;19.49;34.31;99945.41;5086880;28;20039;-78
2024/03/18 10:02:45;;;;;;;3.03;1.05;;;;;;;19.57;32.45;99966.44;5086769;28;20063;-79
2024/03/18 10:05:11;;;;;;;3.17;1.30;;;;;;;19.38;33.30;99952.78;5086681;28;20031;-80
2024/03/18 10:07:37;;;;;;;21.65;3.80;;;;;;;19.57;32.64;99952.91;5086353;28;20043;-79
2024/03/18 10:10:04;;;;;;;12.65;2.67;;;;;;;19.22;33.33;99941.25;5086732;28;20024;-80
2024/03/18 10:12:30;;;;;;;2.60;1.50;;;;;;;19.56;34.65;99932.38;5088343;28;20067;-79
2024/03/18 10:14:55;;;;;;;11.40;2.50;;;;;;;19.31;34.38;99929.84;5090244;28;20048;-80
2024/03/18 10:17:21;;;;;;;3.33;1.52;;;;;;;19.78;34.86;99944.72;5090659;28;20043;-80
2024/03/18 10:19:47;;;;;;;31.48;8.73;;;;;;;20.35;32.50;99950.38;5090682;28;20028;-79
2024/03/18 10:22:14;;;;;;;53.30;11.10;;;;;;;20.48;33.28;99934.28;5090704;28;20035;-80
2024/03/18 10:24:41;;;;;;;10.63;2.50;;;;;;;20.44;33.22;99935.13;5072250;28;20483;-80
2024/03/18 10:27:10;;;;;;;8.88;2.40;;;;;;;20.26;33.74;99917.72;5072253;28;20429;-79
2024/03/18 10:29:38;;;;;;;16.90;4.20;;;;;;;20.09;35.06;99896.50;5090430;28;20052;-78
2024/03/18 10:32:20;;;;;;;6.15;1.70;;;;;;;20.46;33.50;99922.13;5072481;28;20111;-78
2024/03/18 10:34:48;;;;;;;6.28;1.80;;;;;;;19.77;31.32;99886.25;5090626;28;20485;-79
2024/03/18 10:37:17;;;;;;;16.92;3.45;;;;;;;20.18;32.31;99911.03;5094749;28;20084;-79
2024/03/18 10:40:05;;;;;;;10.18;2.85;;;;;;;20.50;32.99;99898.78;5098778;28;20480;-79
2024/03/18 10:42:32;;;;;;;;;;;;;;;20.03;33.24;99911.19;5098402;28;20024;-79
2024/03/18 10:45:26;;;;;;;2.95;1.40;;;;;;;20.14;33.40;99892.94;5097614;28;19923;-78
2024/03/18 10:47:52;;;;;;;3.65;1.52;;;;;;;19.96;32.51;99892.59;5094424;28;20047;-79
2024/03/18 10:50:18;;;;;;;2.65;1.30;;;;;;;20.41;32.55;99890.47;5098835;28;20020;-78
2024/03/18 10:52:43;;;;;;;2.15;1.17;;;;;;;20.73;31.12;99872.78;5099495;28;20043;-78
2024/03/18 10:55:22;;;;;;;2.88;1.40;;;;;;;20.64;32.74;99893.50;5098603;28;20028;-77
2024/03/18 10:57:51;;;;;;;2.20;1.48;;;;;;;20.63;31.70;99845.81;5097745;28;20048;-79
2024/03/18 11:00:18;;;;;;;3.65;1.60;;;;;;;20.63;31.37;99872.91;5097142;28;20091;-76
2024/03/18 11:02:56;;;;;;;3.33;1.40;;;;;;;21.10;31.21;99854.91;5098326;28;20039;-78
2024/03/18 11:05:24;;;;;;;3.85;1.35;;;;;;;21.30;29.47;99864.66;5100618;28;20032;-78
2024/03/18 11:07:52;;;;;;;;;;;;;;;21.50;30.47;99862.75;5101208;28;20066;-79
2024/03/18 11:10:17;;;;;;;3.70;1.40;;;;;;;21.90;29.78;99857.69;5103380;28;20199;-78
2024/03/18 11:12:42;;;;;;;3.47;1.15;;;;;;;22.15;29.29;99826.53;5097961;28;20032;-78
2024/03/18 11:15:09;;;;;;;2.50;1.30;;;;;;;21.46;31.64;99843.53;5096946;28;20041;-77
2024/03/18 11:17:42;;;;;;;2.22;1.20;;;;;;;21.54;29.06;99832.00;5096999;28;20020;-78
2024/03/18 11:20:46;;;;;;;2.05;1.27;;;;;;;22.31;27.56;99844.16;5098397;28;20059;-79